Bango, Nevada Weather observations

Data are for 10 minute period ending at time listed.
 Day   Time    Ave.   Ave.  Ave.  Vector   Max.   Stn.    Total    Solar   Ave.  
  of    of     Air    Rel.  Wind   Wind    Wind   Baro.  Precip.   Rad.    Soil  
Year   Day     Temp.  Hum.  Speed  Dir.    Gust   Pres.                    Temp. 
2015   (PST)    F      %     mph   deg.    mph     mb.     in.     W/m2     F    
--------------------------------------------------------------------------------- 
  85    8:30   55.8    37    2.6    98      4.2   884.4    0.00     513    12.9  
  85    8:40   55.5    38    2.6    94      4.2   884.3    0.00     471    12.8  
  85    8:50   56.0    37    2.6   115      5.1   884.4    0.00     569    12.8  
  85    9:00   56.8    36    2.8   146      5.1   884.5    0.00     610    12.8  
  85    9:10   57.2    36    2.7   210      5.1   884.5    0.00     570    12.8  
  85    9:20   56.7    37    3.4   171      6.9   884.5    0.00     563    12.8  
  85    9:30   57.9    35    3.0   144      6.0   884.5    0.00     705    12.8  
  85    9:40   59.0    33    1.4    28      4.2   884.5    0.00     658    12.8  
  85    9:50   59.2    33    2.5   267      6.0   884.4    0.00     772    12.8  
  85   10:00   58.7    34    2.8   341      5.1   884.4    0.00     712    12.8  
  85   10:10   59.4    33    2.8   213      5.1   884.4    0.00     788    12.8  
  85   10:20   60.2    32    4.1    36      7.8   884.3    0.00     803    12.9  
  85   10:30   60.5    32    3.1   325      6.0   884.3    0.00     833    12.9  
  85   10:40   61.0    31    3.1     9      5.1   884.1    0.00     817    13.0  
  85   10:50   62.8    29    3.3   196      6.0   884.1    0.00     854    13.0  
  85   11:00   63.0    28    2.9   170      6.0   884.0    0.00     868    13.1  
  85   11:10   64.4    27    3.1   346      6.9   883.8    0.00     880    13.2  
  85   11:20   64.1    27    3.8    55      6.0   883.7    0.00     886    13.3  
  85   11:30   65.0    27    4.9   142     10.5   883.7    0.00     893    13.4  
  85   11:40   64.7    27    5.0   140     10.5   883.6    0.00     896    13.5  
  85   11:50   64.7    27    4.7    46      9.6   883.5    0.00     901    13.6  
  85   12:00   65.8    26    7.7   117     12.3   883.3    0.00     876    13.7  
  85   12:10   65.6    26    6.5   136     11.4   883.3    0.00     902    13.9  
  85   12:20   66.5    25    6.3   110     11.4   883.2    0.00     902    14.0  
  85   12:30   66.4    25    6.5    88     13.2   883.0    0.00     898    14.2  
  85   12:40   66.8    25    6.7    87     15.8   882.9    0.00     832    14.3  
  85   12:50   66.7    25    5.0   158     12.3   882.8    0.00     642    14.5  
  85   13:00   67.2    25    5.8   132      9.6   882.6    0.00     875    14.6  
  85   13:10   68.4    24    6.1   119     11.4   882.4    0.00     864    14.8  
  85   13:20   68.1    24    5.2   134     10.5   882.3    0.00     851    15.0  
  85   13:30   68.6    23    5.5   136      9.6   882.1    0.00     837    15.1  
  85   13:40   68.7    23    6.3    82     10.5   881.9    0.00     821    15.3  
  85   13:50   68.4    23    5.0    34     11.4   881.7    0.00     802    15.5  
  85   14:00   69.5    23    5.4    56     13.2   881.6    0.00     782    15.7  
  85   14:10   69.7    22    4.9   118     10.5   881.4    0.00     761    15.9  
  85   14:20   69.5    22    7.4    53     13.2   881.3    0.00     738    16.1  
  85   14:30   69.4    22    6.8    30     12.3   881.2    0.00     715    16.3  
  85   14:40   70.0    22    6.0    68     10.5   881.1    0.00     691    16.4  
  85   14:50   69.7    22    6.3   112     10.5   880.9    0.00     664    16.6  
  85   15:00   70.0    22    6.6    57      9.6   880.9    0.00     637    16.8  
  85   15:10   71.2    20    5.9    69     10.5   880.8    0.00     609    17.0  
  85   15:20   71.6    20    3.8    62      9.6   880.7    0.00     578    17.2  
  85   15:30   71.9    20    6.6    73     11.4   880.6    0.00     547    17.3  
  85   15:40   72.3    20    4.2    20      9.6   880.5    0.00     516    17.5  
  85   15:50   71.1    20    6.5    43     12.3   880.4    0.00     483    17.7  
  85   16:00   71.1    20    7.2    21     14.9   880.4    0.00     450    17.9  
  85   16:10   70.9    20    7.1    41     10.5   880.2    0.00     415    18.0  
  85   16:20   70.9    20    5.6    45     10.5   880.1    0.00     380    18.2  
  85   16:30   70.9    20    5.6    44      9.6   880.1    0.00     344    18.3  
  85   16:40   70.9    20    6.0     7      8.7   880.0    0.00     309    18.5  
  85   16:50   70.9    20    5.7    42      8.7   879.9    0.00     273    18.6  
  85   17:00   70.7    20    6.4    30      9.6   879.8    0.00     238    18.8  
  85   17:10   70.4    20    5.6    39      8.7   879.8    0.00     203    18.9  
  85   17:20   70.4    20    6.0    28     10.5   879.8    0.00     169    19.0  
  85   17:30   70.1    20    4.8    46      7.8   879.7    0.00     134    19.2  
  85   17:40   69.9    20    5.4    35      8.7   879.7    0.00      94    19.3  
  85   17:50   69.2    21    5.8    50      7.8   879.6    0.00      57    19.4  
  85   18:00   68.5    22    5.3    54      6.9   879.5    0.00      30    19.5  
  85   18:10   66.7    23    6.6    47      8.7   879.5    0.00      10    19.6  
  85   18:20   65.3    25    7.1    49      8.7   879.5    0.00       5    19.6  
  85   18:30   63.8    26    7.0    46      7.8   879.4    0.00       2    19.7  
  85   18:40   62.2    28    5.6    39      7.8   879.4    0.00       0    19.7  
  85   18:50   61.6    28    4.6    26      6.0   879.4    0.00       0    19.8  
  85   19:00   61.1    28    5.2    26      6.0   879.4    0.00       0    19.8  
  85   19:10   60.5    29    5.2    28      6.0   879.5    0.00       0    19.8  
  85   19:20   59.8    29    4.4    22      5.1   879.6    0.00       0    19.8  
  85   19:30   59.7    29    4.3    21      5.1   879.6    0.00       0    19.8  
  85   19:40   59.1    30    4.0   354      5.1   879.6    0.00       0    19.8  
  85   19:50   58.4    30    4.3   343      5.1   879.7    0.00       0    19.8  
  85   20:00   58.5    30    4.2   334      5.1   879.7    0.00       0    19.7  
  85   20:10   57.1    31    4.0   324      4.2   879.8    0.00       0    19.7  
  85   20:20   56.3    32    4.7   326      6.0   879.9    0.00       0    19.7  
  85   20:30   55.9    31    4.1   322      5.1   880.0    0.00       0    19.6  
  85   20:40   52.9    34    2.7   207      4.2   880.1    0.00       0    19.6  
  85   20:50   53.1    35    4.1   215      5.1   880.2    0.00       0    19.5  
  85   21:00   52.7    36    2.8   210      4.2   880.2    0.00       0    19.5  
  85   21:10   52.7    36    2.9   204      4.2   880.3    0.00       0    19.4  
  85   21:20   52.1    37    5.6   229      7.8   880.5    0.00       0    19.3  
  85   21:30   53.0    36    7.3   224      8.7   880.6    0.00       0    19.2  
  85   21:40   52.3    37    6.4   241      7.8   880.6    0.00       0    19.2  
  85   21:50   52.2    37    6.5   240      7.8   880.7    0.00       0    19.1  
  85   22:00   52.1    38    7.2   243      7.8   880.6    0.00       0    19.0  
  85   22:10   53.0    36    7.2   238      7.8   880.6    0.00       0    18.9  
  85   22:20   52.6    37    7.4   242      8.7   880.5    0.00       0    18.8  
  85   22:30   52.5    37    7.9   245      8.7   880.5    0.00       0    18.8  
  85   22:40   52.0    38    5.1   247      7.8   880.5    0.00       0    18.7  
  85   22:50   51.2    39    5.9   228      7.8   880.5    0.00       0    18.6  
  85   23:00   51.1    40    6.3   242      7.8   880.5    0.00       0    18.5  
  85   23:10   51.1    40    5.3   225      6.0   880.5    0.00       0    18.4  
  85   23:20   51.3    40    5.7   214      8.7   880.5    0.00       0    18.3  
  85   23:30   51.8    39    4.5   225      6.0   880.5    0.00       0    18.2  
  85   23:40   51.8    39    6.0   212      7.8   880.5    0.00       0    18.2  
  85   23:50   50.8    40    4.9   230      6.0   880.5    0.00       0    18.1  
  86    0:00   49.8    42    5.3   215      7.8   880.4    0.00       0    18.0  
  86    0:10   47.9    44    6.4   224      6.9   880.5    0.00       0    17.9  
  86    0:20   48.1    46    5.9   240      6.9   880.5    0.00       0    17.8  
  86    0:30   49.0    44    5.5   250      6.9   880.5    0.00       0    17.8  
  86    0:40   49.9    43    6.2   244      7.8   880.5    0.00       0    17.7  
  86    0:50   50.1    42    6.0   224      7.8   880.5    0.00       0    17.6  
  86    1:00   49.1    44    7.1   226      8.7   880.5    0.00       0    17.5  
  86    1:10   48.3    46    6.9   244      7.8   880.5    0.00       0    17.4  
  86    1:20   48.1    46    7.1   242      8.7   880.5    0.00       0    17.4  
  86    1:30   48.2    46    9.3   239     11.4   880.5    0.00       0    17.3  
  86    1:40   50.1    43    7.8   232     10.5   880.4    0.00       0    17.2  
  86    1:50   51.5    41    6.0   244      7.8   880.3    0.00       0    17.1  
  86    2:00   50.9    41    3.6   194      5.1   880.3    0.00       0    17.0  
  86    2:10   49.2    44    2.8   220      4.2   880.2    0.00       0    17.0  
  86    2:20   48.9    45    3.7   208      5.1   880.2    0.00       0    16.9  
  86    2:30   48.9    48    3.9   200      5.1   880.2    0.00       0    16.8  
  86    2:40   48.2    48    3.5   203      4.2   880.2    0.00       0    16.7  
  86    2:50   46.8    49    3.1   232      4.2   880.1    0.00       0    16.7  
  86    3:00   45.8    49    3.6   210      4.2   880.1    0.00       0    16.6  
  86    3:10   46.3    49    3.1   212      4.2   880.1    0.00       0    16.5  
  86    3:20   44.1    52    3.7   235      5.1   880.1    0.00       0    16.5  
  86    3:30   43.8    53    3.6   235      4.2   880.2    0.00       0    16.4  
  86    3:40   43.1    54    3.7   229      6.0   880.2    0.00       0    16.3  
  86    3:50   43.3    54    7.1   237      9.6   880.2    0.00       0    16.2  
  86    4:00   43.9    54    6.7   246      9.6   880.2    0.00       0    16.1  
  86    4:10   44.8    52    6.7   241      8.7   880.2    0.00       0    16.1  
  86    4:20   45.2    51   10.3   236     12.3   880.2    0.00       0    16.0  
  86    4:30   46.6    50   11.6   239     13.2   880.2    0.00       0    15.9  
  86    4:40   46.2    51   10.9   241     12.3   880.2    0.00       0    15.8  
  86    4:50   45.6    52    9.1   235     10.5   880.2    0.00       0    15.8  
  86    5:00   44.4    54    8.6   246      9.6   880.1    0.00       0    15.7  
  86    5:10   44.2    55    8.2   251      9.6   880.1    0.00       0    15.6  
  86    5:20   45.4    53    8.7   243      9.6   880.1    0.00       0    15.6  
  86    5:30   46.6    51    7.9   235      9.6   880.2    0.00       0    15.5  
  86    5:40   45.6    52    7.8   250      8.7   880.2    0.00       1    15.4  
  86    5:50   46.4    52    9.0   243     10.5   880.2    0.00       3    15.4  
  86    6:00   47.8    50   11.0   242     12.3   880.2    0.00      11    15.3  
  86    6:10   48.6    48    9.5   227     12.3   880.2    0.00      30    15.2  
  86    6:20   49.1    48    8.2   218     11.4   880.2    0.00      57    15.2  
  86    6:30   48.2    50    6.9   205      9.6   880.3    0.00      93    15.1  
  86    6:40   49.3    49    5.4   196      8.7   880.4    0.00     130    15.1  
  86    6:50   50.6    48    3.5   181      6.0   880.3    0.00     162    15.0  
  86    7:00   51.4    48    5.6   189      6.9   880.3    0.00     196    14.9  
  86    7:10   53.1    44    6.1   198      8.7   880.2    0.00     230    14.8  
  86    7:20   54.5    40    7.6   209      9.6   880.1    0.00     266    14.8  
  86    7:30   55.1    39    8.2   197     10.5   880.0    0.00     302    14.8  
  86    7:40   56.1    38    9.8   207     13.2   880.0    0.00     338    14.7  
  86    7:50   56.9    36   10.8   218     13.2   880.0    0.00     374    14.6  
  86    8:00   58.1    34   11.0   218     14.1   880.0    0.00     409    14.6  
  86    8:10   58.9    33   12.5   221     14.9   880.0    0.00     444    14.6  
  86    8:20   60.1    32   10.9   212     13.2   880.0    0.00     478    14.5  

Return to Garden Spring, Nevada graphs page.


Western Regional Climate Center,wrcc@dri.edu